Time;durP1;ratioP1;P1;durP2;ratioP2;P2;SDS_P1;SDS_P2;PMS_P1;PMS_P2;Temp;Humidity;BMP_temperature;BMP_pressure;BME280_temperature;BME280_humidity;BME280_pressure;Samples;Min_cycle;Max_cycle;Signal;HPM_P1;HPM_P2
2023/02/26 00:00:59;;;;;;;4.30;2.20;;;12.20;34.00;;;;;;6337878;22;20431;-79
2023/02/26 00:03:30;;;;;;;5.70;2.60;;;12.30;34.00;;;;;;6345286;22;20434;-80
2023/02/26 00:06:02;;;;;;;3.00;2.03;;;12.20;33.90;;;;;;6349267;22;20399;-80
2023/02/26 00:08:53;;;;;;;4.93;2.73;;;12.10;33.80;;;;;;6350269;22;20475;-79
2023/02/26 00:14:35;;;;;;;5.13;2.40;;;12.00;33.40;;;;;;6312539;22;20423;-79
2023/02/26 00:21:25;;;;;;;4.77;3.50;;;12.10;33.80;;;;;;6348152;22;20391;-79
2023/02/26 00:28:26;;;;;;;4.60;3.03;;;11.60;33.90;;;;;;6126811;23;20418;-79
2023/02/26 00:31:23;;;;;;;3.50;2.57;;;11.80;34.40;;;;;;6128873;23;20455;-79
2023/02/26 00:34:53;;;;;;;5.90;2.90;;;11.80;33.70;;;;;;6124362;23;20425;-79
2023/02/26 00:38:01;;;;;;;8.13;4.00;;;11.80;33.80;;;;;;6097524;23;20410;-79
2023/02/26 00:40:41;;;;;;;5.67;4.00;;;11.60;33.20;;;;;;6087078;23;20484;-78
2023/02/26 00:43:14;;;;;;;6.10;3.80;;;11.50;34.10;;;;;;6134389;23;20453;-79
2023/02/26 00:45:56;;;;;;;5.90;3.53;;;11.50;34.10;;;;;;6132133;23;20409;-79
2023/02/26 00:48:34;;;;;;;9.00;4.70;;;11.60;34.00;;;;;;6175779;23;20398;-79
2023/02/26 00:51:08;;;;;;;6.43;4.07;;;11.40;33.70;;;;;;6252410;22;20405;-79
2023/02/26 00:53:40;;;;;;;6.10;3.90;;;11.20;34.70;;;;;;6251692;22;20432;-79
2023/02/26 00:56:10;;;;;;;5.30;4.07;;;11.20;34.50;;;;;;6250865;22;20429;-78
2023/02/26 00:58:38;;;;;;;5.83;3.20;;;11.40;34.60;;;;;;6294399;22;20431;-79
2023/02/26 01:01:06;;;;;;;5.80;3.30;;;11.60;34.40;;;;;;6350811;22;20411;-79
2023/02/26 01:03:36;;;;;;;8.43;3.30;;;11.60;33.60;;;;;;6348580;22;20423;-80
2023/02/26 01:06:05;;;;;;;35.57;18.33;;;11.40;33.60;;;;;;6349712;22;20399;-79
2023/02/26 01:08:34;;;;;;;83.50;41.43;;;11.30;35.20;;;;;;6351290;22;20410;-80
2023/02/26 01:11:05;;;;;;;76.37;37.27;;;11.50;35.70;;;;;;6350175;22;20455;-80
2023/02/26 01:13:35;;;;;;;57.57;29.43;;;11.80;35.40;;;;;;6351128;22;20424;-79
2023/02/26 01:16:05;;;;;;;51.50;26.97;;;11.80;34.50;;;;;;6350055;22;20407;-79
2023/02/26 01:18:36;;;;;;;38.90;20.80;;;11.80;35.20;;;;;;6346103;22;20443;-79
2023/02/26 01:21:05;;;;;;;30.93;15.03;;;11.60;35.80;;;;;;6345291;22;20380;-80
2023/02/26 01:23:41;;;;;;;34.93;14.70;;;11.60;35.00;;;;;;6342392;22;20506;-78
2023/02/26 01:26:12;;;;;;;21.43;11.77;;;11.50;36.30;;;;;;6350458;22;20426;-79
2023/02/26 01:28:45;;;;;;;15.90;8.83;;;11.60;36.40;;;;;;6341607;22;20395;-79
2023/02/26 01:31:18;;;;;;;11.77;7.00;;;11.80;36.00;;;;;;6341615;22;20403;-78
2023/02/26 01:33:49;;;;;;;13.93;6.80;;;12.00;35.80;;;;;;6343498;22;20507;-78
2023/02/26 01:36:21;;;;;;;12.10;5.80;;;12.00;36.00;;;;;;6342947;22;20418;-79
2023/02/26 01:38:51;;;;;;;9.63;4.80;;;12.10;35.80;;;;;;6342190;22;20432;-79
2023/02/26 01:41:25;;;;;;;8.07;4.63;;;12.30;36.40;;;;;;6342738;22;20495;-79
2023/02/26 01:43:59;;;;;;;5.17;3.30;;;12.20;35.40;;;;;;6340821;22;20441;-78
2023/02/26 01:46:33;;;;;;;4.23;2.97;;;12.30;35.40;;;;;;6339678;22;20399;-78
2023/02/26 01:49:05;;;;;;;5.67;2.97;;;12.20;35.00;;;;;;6339859;22;20404;-78
2023/02/26 01:51:48;;;;;;;4.50;2.63;;;12.00;35.60;;;;;;6345687;22;20923;-78
2023/02/26 01:54:17;;;;;;;3.20;1.90;;;12.00;35.90;;;;;;6339273;22;20455;-78
2023/02/26 01:56:50;;;;;;;4.60;2.27;;;11.80;35.10;;;;;;6338636;22;20433;-78
2023/02/26 01:59:23;;;;;;;3.00;1.60;;;11.80;36.40;;;;;;6337925;22;20466;-78
2023/02/26 02:01:52;;;;;;;2.40;1.40;;;11.90;35.70;;;;;;6338401;22;20427;-78
2023/02/26 02:04:20;;;;;;;3.47;1.80;;;11.80;35.20;;;;;;6337012;22;20487;-78
2023/02/26 02:06:49;;;;;;;2.10;1.30;;;11.50;35.20;;;;;;6343903;22;20410;-79
2023/02/26 02:09:17;;;;;;;3.97;1.20;;;11.40;35.40;;;;;;6347799;22;20424;-80
2023/02/26 02:11:57;;;;;;;2.20;1.57;;;11.30;35.90;;;;;;6342929;22;20518;-77
2023/02/26 02:14:31;;;;;;;1.63;0.93;;;11.30;36.30;;;;;;6348078;22;20510;-79
2023/02/26 02:17:00;;;;;;;2.40;1.43;;;11.40;36.30;;;;;;6345812;22;20403;-79
2023/02/26 02:20:05;;;;;;;1.30;1.20;;;11.40;35.80;;;;;;6344994;22;20431;-79
2023/02/26 02:22:40;;;;;;;4.83;1.50;;;11.40;35.60;;;;;;6340172;22;20429;-79
2023/02/26 02:25:16;;;;;;;1.67;1.00;;;11.30;35.60;;;;;;6345096;22;20434;-79
2023/02/26 02:27:50;;;;;;;1.83;1.00;;;11.40;35.60;;;;;;6345189;22;20439;-79
2023/02/26 02:30:25;;;;;;;2.90;1.30;;;11.20;35.40;;;;;;6345150;22;20395;-78
2023/02/26 02:32:57;;;;;;;1.77;1.33;;;11.10;35.80;;;;;;6340177;22;20399;-77
2023/02/26 02:35:29;;;;;;;2.87;1.33;;;11.00;35.60;;;;;;6341124;22;20400;-79
2023/02/26 02:37:59;;;;;;;2.73;1.20;;;10.70;35.80;;;;;;6336847;22;20481;-78
2023/02/26 02:40:29;;;;;;;0.90;0.90;;;10.70;36.80;;;;;;6335824;22;20431;-78
2023/02/26 02:43:00;;;;;;;1.93;1.20;;;10.50;36.40;;;;;;6336495;22;20431;-77
2023/02/26 02:45:43;;;;;;;5.90;2.03;;;10.30;36.60;;;;;;6336538;22;20396;-77
2023/02/26 02:48:16;;;;;;;3.90;2.13;;;10.10;37.10;;;;;;6336529;22;20467;-78
2023/02/26 02:50:48;;;;;;;7.27;2.37;;;10.10;37.80;;;;;;6336524;22;20396;-78
2023/02/26 02:53:18;;;;;;;4.83;2.20;;;10.40;37.60;;;;;;6336317;22;20474;-78
2023/02/26 02:55:56;;;;;;;8.13;2.87;;;10.20;36.60;;;;;;6334844;22;20439;-78
2023/02/26 02:58:26;;;;;;;5.17;2.30;;;10.20;37.40;;;;;;6334812;22;20403;-78
2023/02/26 03:01:01;;;;;;;6.07;2.37;;;10.10;37.40;;;;;;6336515;22;20459;-79
2023/02/26 03:03:34;;;;;;;4.23;2.27;;;10.40;37.80;;;;;;6336576;22;20428;-78
2023/02/26 03:06:02;;;;;;;4.03;1.80;;;10.70;37.40;;;;;;6336021;22;20403;-78
2023/02/26 03:08:34;;;;;;;5.20;1.80;;;10.90;36.90;;;;;;6335796;22;20486;-78
2023/02/26 03:11:02;;;;;;;3.83;2.17;;;10.90;36.50;;;;;;6336786;22;20450;-79
2023/02/26 03:13:30;;;;;;;1.97;1.67;;;10.90;36.50;;;;;;6335141;22;20423;-78
2023/02/26 03:16:06;;;;;;;4.30;1.63;;;11.00;36.20;;;;;;6334610;22;20403;-78
2023/02/26 03:18:47;;;;;;;4.63;1.53;;;11.00;36.10;;;;;;6335529;22;20406;-78
2023/02/26 03:21:19;;;;;;;2.30;1.93;;;10.90;36.50;;;;;;6335487;22;20392;-78
2023/02/26 03:23:52;;;;;;;2.97;1.50;;;10.90;36.60;;;;;;6335797;22;20416;-78
2023/02/26 03:26:22;;;;;;;4.87;1.53;;;11.00;36.50;;;;;;6335586;22;20422;-78
2023/02/26 03:28:52;;;;;;;8.53;1.70;;;11.00;36.20;;;;;;6334095;22;20399;-78
2023/02/26 03:31:23;;;;;;;3.63;1.70;;;11.00;36.30;;;;;;6340187;22;20380;-79
2023/02/26 03:33:56;;;;;;;4.17;1.70;;;10.90;36.40;;;;;;6339263;22;20430;-78
2023/02/26 03:36:27;;;;;;;4.17;1.90;;;10.90;36.80;;;;;;6340075;22;20415;-80
2023/02/26 03:39:01;;;;;;;4.60;1.83;;;11.00;36.80;;;;;;6339215;22;20482;-78
2023/02/26 03:41:32;;;;;;;2.17;1.30;;;11.00;36.50;;;;;;6337103;22;20411;-78
2023/02/26 03:44:01;;;;;;;9.03;1.83;;;11.10;36.60;;;;;;6336957;22;20487;-78
2023/02/26 03:46:30;;;;;;;4.70;1.73;;;11.00;36.40;;;;;;6336707;22;20427;-79
2023/02/26 03:49:02;;;;;;;2.67;1.63;;;11.00;36.70;;;;;;6336334;22;20403;-78
2023/02/26 03:51:30;;;;;;;2.43;1.30;;;11.00;36.40;;;;;;6336701;22;20409;-78
2023/02/26 03:54:00;;;;;;;2.00;1.30;;;11.00;36.70;;;;;;6336476;22;20446;-78
2023/02/26 03:56:30;;;;;;;2.80;1.33;;;10.90;36.60;;;;;;6336192;22;20438;-79
2023/02/26 03:58:58;;;;;;;1.37;1.27;;;11.00;36.60;;;;;;6335726;22;20437;-78
2023/02/26 04:01:29;;;;;;;4.20;1.40;;;10.90;36.60;;;;;;6336743;22;20450;-78
2023/02/26 04:04:00;;;;;;;4.00;1.70;;;10.90;36.50;;;;;;6338602;22;20408;-79
2023/02/26 04:06:28;;;;;;;1.67;1.57;;;10.90;36.80;;;;;;6339010;22;20399;-78
2023/02/26 04:08:56;;;;;;;9.20;1.60;;;10.90;36.80;;;;;;6339689;22;20409;-78
2023/02/26 04:11:24;;;;;;;2.50;1.60;;;10.90;36.50;;;;;;6339652;22;20454;-77
2023/02/26 04:13:55;;;;;;;5.30;1.40;;;10.90;36.70;;;;;;6339114;22;20423;-78
2023/02/26 04:16:23;;;;;;;4.87;1.80;;;10.90;36.80;;;;;;6338590;22;20388;-78
2023/02/26 04:18:51;;;;;;;4.07;1.30;;;10.90;36.50;;;;;;6338540;22;20407;-78
2023/02/26 04:21:22;;;;;;;1.73;1.13;;;11.00;36.70;;;;;;6339614;22;20462;-78
2023/02/26 04:23:50;;;;;;;4.40;1.43;;;10.70;36.10;;;;;;6338780;22;20446;-78
2023/02/26 04:26:25;;;;;;;3.17;1.47;;;10.60;37.30;;;;;;6340363;22;20427;-79
2023/02/26 04:28:57;;;;;;;3.40;1.23;;;10.60;37.30;;;;;;6339880;22;20395;-79
2023/02/26 04:31:26;;;;;;;3.93;1.27;;;10.70;37.60;;;;;;6339901;22;20494;-79
2023/02/26 04:33:54;;;;;;;2.30;1.33;;;10.80;37.40;;;;;;6339853;22;20424;-79
2023/02/26 04:36:23;;;;;;;1.20;1.10;;;10.80;37.30;;;;;;6338337;22;20403;-79
2023/02/26 04:38:52;;;;;;;2.33;1.20;;;10.70;37.20;;;;;;6340565;22;20410;-78
2023/02/26 04:41:20;;;;;;;4.53;1.43;;;10.50;37.30;;;;;;6338755;22;20443;-78
2023/02/26 04:43:52;;;;;;;2.90;1.27;;;10.60;37.80;;;;;;6339535;22;20945;-78
2023/02/26 04:46:20;;;;;;;2.50;1.10;;;10.70;37.40;;;;;;6339310;22;20494;-77
2023/02/26 04:48:48;;;;;;;2.10;1.00;;;10.70;37.60;;;;;;6338304;22;20404;-78
2023/02/26 04:51:16;;;;;;;3.73;1.23;;;10.60;37.60;;;;;;6342520;22;20886;-77
2023/02/26 04:53:46;;;;;;;4.40;1.67;;;10.40;37.50;;;;;;6339130;22;20419;-78
2023/02/26 04:56:14;;;;;;;1.60;1.23;;;10.30;38.00;;;;;;6338423;22;20433;-78
2023/02/26 04:58:42;;;;;;;3.23;1.10;;;10.30;38.70;;;;;;6337182;22;20410;-79
2023/02/26 05:01:13;;;;;;;2.57;1.43;;;10.30;38.30;;;;;;6338452;22;20490;-77
2023/02/26 05:03:41;;;;;;;2.83;1.40;;;10.20;38.20;;;;;;6335197;22;20423;-77
2023/02/26 05:06:09;;;;;;;2.67;1.50;;;10.20;38.20;;;;;;6335947;22;20398;-78
2023/02/26 05:08:41;;;;;;;1.97;1.20;;;10.20;38.30;;;;;;6336623;22;20430;-77
2023/02/26 05:11:13;;;;;;;1.67;1.20;;;10.20;38.20;;;;;;6336127;22;20411;-78
2023/02/26 05:13:41;;;;;;;2.13;1.53;;;10.10;38.30;;;;;;6334187;22;20431;-75
2023/02/26 05:16:09;;;;;;;3.20;1.20;;;10.10;38.90;;;;;;6337315;22;20408;-77
2023/02/26 05:18:37;;;;;;;6.30;1.50;;;10.20;38.60;;;;;;6337159;22;20458;-78
2023/02/26 05:21:06;;;;;;;1.50;1.13;;;10.10;38.10;;;;;;6335961;22;20428;-77
2023/02/26 05:23:34;;;;;;;3.07;1.40;;;9.90;39.90;;;;;;6336036;22;20427;-77
2023/02/26 05:26:02;;;;;;;2.47;1.70;;;10.00;39.00;;;;;;6337593;22;20427;-78
2023/02/26 05:28:32;;;;;;;3.10;1.50;;;10.00;38.90;;;;;;6337228;22;20461;-77
2023/02/26 05:31:00;;;;;;;1.60;1.50;;;10.10;38.90;;;;;;6336135;22;20410;-77
2023/02/26 05:33:29;;;;;;;3.13;1.60;;;9.90;40.00;;;;;;6336707;22;20423;-78
2023/02/26 05:35:57;;;;;;;2.70;1.47;;;10.00;39.10;;;;;;6335825;22;20403;-78
2023/02/26 05:38:25;;;;;;;4.00;1.40;;;10.10;38.80;;;;;;6337452;22;20410;-80
2023/02/26 05:40:56;;;;;;;2.50;1.10;;;10.20;38.30;;;;;;6337153;22;20439;-79
2023/02/26 05:43:25;;;;;;;2.40;1.30;;;10.20;38.90;;;;;;6339494;22;20455;-78
2023/02/26 05:45:54;;;;;;;3.37;1.30;;;10.20;38.60;;;;;;6338810;22;20410;-77
2023/02/26 05:48:23;;;;;;;1.43;1.17;;;10.20;38.50;;;;;;6336204;22;20404;-77
2023/02/26 05:50:51;;;;;;;4.17;1.60;;;10.20;38.50;;;;;;6336049;22;20399;-77
2023/02/26 05:53:19;;;;;;;7.90;1.30;;;10.20;38.20;;;;;;6335439;22;20423;-77
2023/02/26 05:55:47;;;;;;;6.93;1.70;;;10.10;38.50;;;;;;6336372;22;20434;-77
2023/02/26 05:58:15;;;;;;;1.87;1.30;;;10.20;38.60;;;;;;6336397;22;20475;-78
2023/02/26 06:00:43;;;;;;;3.00;1.27;;;10.30;38.30;;;;;;6336098;22;20450;-78
2023/02/26 06:03:13;;;;;;;2.00;1.53;;;10.10;38.20;;;;;;6337089;22;20423;-78
2023/02/26 06:05:41;;;;;;;2.20;1.33;;;10.10;38.60;;;;;;6335934;22;20490;-79
2023/02/26 06:08:10;;;;;;;3.00;1.30;;;10.10;38.40;;;;;;6337042;22;20404;-77
2023/02/26 06:10:39;;;;;;;4.67;0.93;;;10.20;38.40;;;;;;6335866;22;20400;-77
2023/02/26 06:13:07;;;;;;;5.40;1.30;;;10.30;38.10;;;;;;6335970;22;20413;-77
2023/02/26 06:15:34;;;;;;;2.70;1.30;;;10.30;38.10;;;;;;6335992;22;20407;-77
2023/02/26 06:18:02;;;;;;;5.30;1.00;;;10.40;38.10;;;;;;6335619;22;20407;-78
2023/02/26 06:20:32;;;;;;;1.53;1.00;;;10.30;37.80;;;;;;6337740;22;20450;-77
2023/02/26 06:23:00;;;;;;;2.00;1.40;;;10.00;37.40;;;;;;6337853;22;20407;-80
2023/02/26 06:25:28;;;;;;;2.93;1.17;;;9.90;39.30;;;;;;6334813;22;20403;-78
2023/02/26 06:27:56;;;;;;;2.93;1.30;;;9.90;39.40;;;;;;6337475;22;20411;-78
2023/02/26 06:30:24;;;;;;;3.03;1.40;;;10.00;38.70;;;;;;6335733;22;20403;-77
2023/02/26 06:32:52;;;;;;;2.60;1.33;;;10.00;38.10;;;;;;6342413;22;20406;-81
2023/02/26 06:35:20;;;;;;;1.50;1.40;;;10.00;38.40;;;;;;6338562;22;20403;-79
2023/02/26 06:37:49;;;;;;;3.10;1.27;;;10.10;37.90;;;;;;6342946;22;20398;-79
2023/02/26 06:40:17;;;;;;;3.63;1.40;;;9.90;38.80;;;;;;6342893;22;20414;-81
2023/02/26 06:42:48;;;;;;;1.47;1.20;;;10.00;38.60;;;;;;6346818;22;20427;-83
2023/02/26 06:45:16;;;;;;;6.03;1.30;;;9.90;39.20;;;;;;6348213;22;20422;-80
2023/02/26 06:47:44;;;;;;;4.70;1.50;;;9.80;39.20;;;;;;6347340;22;20443;-81
2023/02/26 06:50:12;;;;;;;1.77;1.23;;;9.60;39.00;;;;;;6346008;22;20408;-81
2023/02/26 06:52:40;;;;;;;3.57;1.10;;;9.50;40.00;;;;;;6347747;22;20395;-81
2023/02/26 06:55:11;;;;;;;6.73;1.40;;;9.50;39.80;;;;;;6346144;22;20419;-81
2023/02/26 06:57:38;;;;;;;2.00;1.10;;;9.50;40.40;;;;;;6345462;22;20415;-80
2023/02/26 07:00:08;;;;;;;5.47;1.03;;;9.60;39.70;;;;;;6345106;22;20402;-81
2023/02/26 07:02:36;;;;;;;3.00;1.20;;;9.50;39.70;;;;;;6345658;22;20435;-81
2023/02/26 07:05:04;;;;;;;4.77;1.13;;;9.50;40.00;;;;;;6345781;22;20542;-81
2023/02/26 07:07:32;;;;;;;2.37;1.30;;;9.60;40.10;;;;;;6347267;22;20495;-81
2023/02/26 07:10:00;;;;;;;5.17;1.47;;;9.60;39.60;;;;;;6346933;22;20399;-80
2023/02/26 07:12:29;;;;;;;3.87;1.00;;;9.50;39.60;;;;;;6345291;22;20416;-80
2023/02/26 07:14:58;;;;;;;1.20;1.10;;;9.50;39.90;;;;;;6346899;22;20427;-78
2023/02/26 07:17:26;;;;;;;1.87;1.00;;;9.60;39.90;;;;;;6345763;22;20399;-80
2023/02/26 07:19:54;;;;;;;2.80;1.10;;;9.80;39.70;;;;;;6340521;22;20498;-80
2023/02/26 07:22:22;;;;;;;2.70;1.20;;;10.00;38.40;;;;;;6340913;22;20442;-80
2023/02/26 07:24:51;;;;;;;1.77;1.17;;;9.90;38.90;;;;;;6340911;22;20482;-80
2023/02/26 07:27:19;;;;;;;2.17;1.00;;;9.80;39.00;;;;;;6346835;22;21022;-81
2023/02/26 07:29:48;;;;;;;2.57;1.10;;;9.70;39.40;;;;;;6346588;22;20433;-81
2023/02/26 07:32:16;;;;;;;5.93;1.30;;;9.70;39.20;;;;;;6347305;22;20399;-79
2023/02/26 07:34:45;;;;;;;1.20;0.90;;;9.80;40.30;;;;;;6346324;22;20519;-78
2023/02/26 07:37:13;;;;;;;3.63;1.43;;;10.00;38.40;;;;;;6346673;22;20406;-81
2023/02/26 07:39:41;;;;;;;5.03;1.40;;;10.00;38.40;;;;;;6340688;22;20471;-80
2023/02/26 07:42:09;;;;;;;3.63;1.57;;;10.20;38.70;;;;;;6339955;22;20440;-79
2023/02/26 07:44:38;;;;;;;2.53;1.30;;;10.20;37.90;;;;;;6341867;22;20411;-79
2023/02/26 07:47:07;;;;;;;3.73;1.57;;;10.30;38.10;;;;;;6340472;22;20464;-79
2023/02/26 07:49:35;;;;;;;4.60;1.90;;;10.20;38.30;;;;;;6341016;22;20391;-79
2023/02/26 07:52:04;;;;;;;3.57;1.70;;;10.20;38.00;;;;;;6341293;22;20478;-81
2023/02/26 07:54:32;;;;;;;5.03;1.60;;;10.30;38.60;;;;;;6344470;22;20418;-80
2023/02/26 07:57:00;;;;;;;1.27;1.10;;;10.20;38.10;;;;;;6341999;22;20445;-81
2023/02/26 07:59:28;;;;;;;1.73;1.30;;;10.30;38.20;;;;;;6343649;22;20398;-82
2023/02/26 08:02:01;;;;;;;2.10;1.43;;;10.30;38.40;;;;;;6344071;22;20424;-80
2023/02/26 08:04:31;;;;;;;3.50;1.30;;;10.20;38.30;;;;;;6346999;22;20435;-81
2023/02/26 08:07:00;;;;;;;2.23;1.40;;;10.40;38.70;;;;;;6347930;22;20400;-81
2023/02/26 08:09:30;;;;;;;10.27;5.53;;;10.60;38.90;;;;;;6348480;22;20418;-83
2023/02/26 08:12:02;;;;;;;5.60;3.67;;;10.70;38.70;;;;;;6346975;22;20404;-82
2023/02/26 08:14:30;;;;;;;7.50;4.40;;;10.90;38.80;;;;;;6347627;22;20414;-80
2023/02/26 08:16:58;;;;;;;11.20;4.20;;;11.10;38.70;;;;;;6347168;22;20404;-82
2023/02/26 08:19:26;;;;;;;8.33;3.60;;;11.30;38.70;;;;;;6348099;22;20491;-79
2023/02/26 08:22:13;;;;;;;6.77;3.60;;;11.30;37.80;;;;;;6348432;22;20423;-81
2023/02/26 08:25:02;;;;;;;5.87;2.93;;;11.40;37.90;;;;;;6347164;22;20472;-79
2023/02/26 08:27:32;;;;;;;4.23;2.60;;;11.60;39.30;;;;;;6347609;22;20904;-82
2023/02/26 08:30:11;;;;;;;3.87;2.27;;;11.90;39.00;;;;;;6346298;22;20437;-83
2023/02/26 08:32:50;;;;;;;5.07;2.20;;;12.20;38.60;;;;;;6348326;22;20372;-81
2023/02/26 08:35:21;;;;;;;4.77;1.83;;;12.30;38.20;;;;;;6348508;22;20399;-80
2023/02/26 08:38:03;;;;;;;3.67;1.50;;;12.40;39.30;;;;;;6348357;22;20380;-80
2023/02/26 08:40:39;;;;;;;4.83;1.83;;;12.60;39.00;;;;;;6348167;22;20387;-80
2023/02/26 08:43:11;;;;;;;2.13;1.43;;;12.90;39.50;;;;;;6349213;22;20430;-81
2023/02/26 08:45:42;;;;;;;2.80;1.80;;;13.20;39.60;;;;;;6347219;22;20372;-81
2023/02/26 08:48:32;;;;;;;3.07;1.60;;;13.50;39.20;;;;;;6339050;22;20728;-82
2023/02/26 08:50:59;;;;;;;2.70;1.60;;;13.70;38.80;;;;;;6346359;22;20375;-80
2023/02/26 08:53:40;;;;;;;3.37;1.50;;;13.90;38.50;;;;;;6345989;22;20438;-80
2023/02/26 08:56:11;;;;;;;2.17;1.33;;;14.20;38.60;;;;;;6344800;22;20415;-80
2023/02/26 08:58:39;;;;;;;1.73;1.27;;;14.50;38.40;;;;;;6344714;22;20406;-83
2023/02/26 09:01:13;;;;;;;3.10;1.10;;;14.70;38.50;;;;;;6344669;22;20406;-82
2023/02/26 09:03:47;;;;;;;1.83;1.30;;;14.90;37.00;;;;;;6346298;22;20442;-81
2023/02/26 09:06:18;;;;;;;4.17;1.40;;;15.10;37.60;;;;;;6347203;22;20407;-80
2023/02/26 09:08:49;;;;;;;2.60;1.07;;;15.30;37.40;;;;;;6345705;22;20426;-80
2023/02/26 09:11:29;;;;;;;2.83;1.77;;;15.50;37.30;;;;;;6343878;22;20458;-80
2023/02/26 09:14:28;;;;;;;1.20;1.10;;;15.80;36.60;;;;;;6347061;22;20484;-80
2023/02/26 09:17:15;;;;;;;1.67;1.20;;;16.00;37.00;;;;;;6349732;22;20931;-81
2023/02/26 09:20:35;;;;;;;5.13;2.43;;;16.30;36.70;;;;;;6348655;22;20415;-83
2023/02/26 09:23:09;;;;;;;5.53;4.30;;;16.50;36.70;;;;;;6318780;22;20438;-84
2023/02/26 09:25:54;;;;;;;6.13;4.07;;;16.80;36.50;;;;;;6348362;22;20427;-82
2023/02/26 09:28:23;;;;;;;5.23;3.87;;;17.10;36.00;;;;;;6344452;22;20484;-81
2023/02/26 09:30:52;;;;;;;4.80;3.70;;;17.40;35.70;;;;;;6344247;22;20753;-81
2023/02/26 09:33:20;;;;;;;7.67;3.60;;;17.60;34.50;;;;;;6343917;22;20416;-80
2023/02/26 09:35:49;;;;;;;3.10;2.90;;;17.90;35.00;;;;;;6345841;22;20471;-80
2023/02/26 09:38:20;;;;;;;7.57;4.20;;;18.10;34.10;;;;;;6345362;22;20407;-80
2023/02/26 09:41:04;;;;;;;4.30;2.90;;;18.40;33.90;;;;;;6331383;22;20427;-78
2023/02/26 09:43:56;;;;;;;5.60;3.40;;;18.60;33.80;;;;;;6345447;22;20455;-80
2023/02/26 09:49:58;;;;;;;4.30;3.57;;;19.00;32.50;;;;;;6345874;22;20406;-80
2023/02/26 09:52:53;;;;;;;4.03;3.40;;;19.20;31.80;;;;;;6347520;22;20426;-83
2023/02/26 09:55:52;;;;;;;5.10;3.27;;;19.50;32.40;;;;;;6347448;22;20395;-81
2023/02/26 09:58:28;;;;;;;3.87;2.87;;;19.60;31.60;;;;;;6345380;22;20441;-82
2023/02/26 10:01:01;;;;;;;4.50;2.37;;;19.80;31.70;;;;;;6346546;22;20903;-80
2023/02/26 10:03:34;;;;;;;2.23;2.13;;;20.10;31.30;;;;;;6345315;22;20435;-79
2023/02/26 10:06:22;;;;;;;2.33;1.73;;;20.30;30.70;;;;;;6347446;22;20411;-80
2023/02/26 10:09:08;;;;;;;1.90;1.80;;;20.50;30.60;;;;;;6347604;22;20395;-80
2023/02/26 10:11:42;;;;;;;1.87;1.70;;;20.70;30.90;;;;;;6344633;22;20495;-80
2023/02/26 10:14:15;;;;;;;2.27;1.83;;;20.80;30.70;;;;;;6344586;22;20510;-82
2023/02/26 10:16:45;;;;;;;3.57;1.80;;;20.90;29.90;;;;;;6347899;22;20401;-80
2023/02/26 10:19:16;;;;;;;1.33;1.23;;;21.10;29.60;;;;;;6349053;22;20416;-81
2023/02/26 10:21:46;;;;;;;2.00;1.90;;;21.40;29.70;;;;;;6347358;22;20405;-81
2023/02/26 10:24:18;;;;;;;2.80;2.53;;;21.60;29.50;;;;;;6349248;22;20441;-78
2023/02/26 10:26:51;;;;;;;2.10;1.80;;;21.90;29.50;;;;;;6343535;22;20442;-79
2023/02/26 10:29:24;;;;;;;1.80;1.70;;;22.30;29.40;;;;;;6341250;22;20406;-79
2023/02/26 10:32:03;;;;;;;3.67;2.00;;;22.40;29.20;;;;;;6342981;22;20386;-79
2023/02/26 10:34:34;;;;;;;2.10;2.00;;;22.50;28.70;;;;;;6348512;22;20514;-80
2023/02/26 10:37:08;;;;;;;1.73;1.63;;;22.70;28.80;;;;;;6348389;22;20403;-80
2023/02/26 10:39:41;;;;;;;2.00;1.87;;;22.70;28.60;;;;;;6348650;22;20402;-80
2023/02/26 10:42:13;;;;;;;1.80;1.43;;;23.00;28.60;;;;;;6347336;22;20402;-81
2023/02/26 10:44:46;;;;;;;2.27;1.30;;;23.20;28.60;;;;;;6348814;22;20416;-81
2023/02/26 10:47:19;;;;;;;3.53;1.40;;;23.10;27.40;;;;;;6347814;22;20374;-78
2023/02/26 10:49:52;;;;;;;3.83;1.30;;;22.90;28.00;;;;;;6347369;22;20396;-80
2023/02/26 10:52:25;;;;;;;6.63;5.20;;;23.10;28.40;;;;;;6348103;22;20375;-81
2023/02/26 10:55:06;;;;;;;5.53;3.60;;;22.70;27.10;;;;;;6350765;22;20397;-81
2023/02/26 10:57:37;;;;;;;4.80;3.27;;;22.80;27.70;;;;;;6345910;22;20966;-82
2023/02/26 11:00:15;;;;;;;2.70;2.30;;;22.90;27.40;;;;;;6344694;22;20403;-81
2023/02/26 11:02:44;;;;;;;3.90;2.77;;;23.10;27.90;;;;;;6345353;22;20401;-80
2023/02/26 11:05:15;;;;;;;2.50;2.30;;;22.90;27.00;;;;;;6345385;22;20435;-81
2023/02/26 11:07:44;;;;;;;1.90;1.80;;;22.90;27.20;;;;;;6343927;22;20403;-80
2023/02/26 11:10:16;;;;;;;3.50;2.20;;;22.80;27.60;;;;;;6340436;22;20384;-79
2023/02/26 11:12:44;;;;;;;3.23;2.43;;;22.90;27.20;;;;;;6337240;22;20496;-80
2023/02/26 11:15:19;;;;;;;1.90;1.80;;;22.90;27.40;;;;;;6340174;22;20426;-80
2023/02/26 11:17:47;;;;;;;3.63;2.40;;;22.80;27.20;;;;;;6344336;22;20399;-80
2023/02/26 11:20:20;;;;;;;3.50;2.80;;;22.70;26.70;;;;;;6346036;22;20696;-79
2023/02/26 11:22:55;;;;;;;3.87;3.50;;;22.30;26.90;;;;;;6347124;22;20399;-80
2023/02/26 11:25:24;;;;;;;5.20;2.90;;;22.40;26.90;;;;;;6341675;22;20437;-78
2023/02/26 11:27:55;;;;;;;5.43;4.10;;;22.50;26.60;;;;;;6344286;22;20435;-80
2023/02/26 11:30:26;;;;;;;4.97;3.43;;;22.00;26.40;;;;;;6346301;22;20411;-80
2023/02/26 11:32:56;;;;;;;3.53;2.90;;;22.70;26.40;;;;;;6348098;22;20772;-81
2023/02/26 11:35:26;;;;;;;4.13;2.60;;;22.60;25.90;;;;;;6348751;22;20426;-78
2023/02/26 11:37:56;;;;;;;2.90;2.70;;;22.40;25.80;;;;;;6349274;22;20427;-80
2023/02/26 11:40:27;;;;;;;4.57;2.20;;;22.50;25.60;;;;;;6348686;22;20422;-81
2023/02/26 11:42:58;;;;;;;2.90;2.57;;;22.20;25.50;;;;;;6338176;22;20403;-78
2023/02/26 11:45:27;;;;;;;3.00;2.70;;;23.10;26.80;;;;;;6335485;22;20409;-78
2023/02/26 11:47:58;;;;;;;3.33;2.60;;;23.90;26.60;;;;;;6335569;22;20378;-78
2023/02/26 11:50:27;;;;;;;3.90;3.60;;;25.80;25.90;;;;;;6335280;22;20366;-78
2023/02/26 11:52:56;;;;;;;3.13;2.93;;;27.30;24.30;;;;;;6341282;22;20385;-78
2023/02/26 11:55:28;;;;;;;3.60;3.20;;;29.00;23.80;;;;;;6338310;22;20406;-78
2023/02/26 11:57:56;;;;;;;6.10;3.27;;;30.10;22.30;;;;;;6338097;22;20431;-77
2023/02/26 12:00:29;;;;;;;8.70;2.90;;;29.60;21.30;;;;;;6336889;22;20409;-77
2023/02/26 12:03:00;;;;;;;25.67;3.50;;;28.90;22.20;;;;;;6335795;22;20478;-79
2023/02/26 12:05:29;;;;;;;15.43;3.40;;;29.80;25.70;;;;;;6343490;22;20434;-80
2023/02/26 12:07:57;;;;;;;6.47;2.63;;;31.00;25.40;;;;;;6339858;22;20489;-79
2023/02/26 12:10:27;;;;;;;7.70;2.40;;;31.90;24.70;;;;;;6337264;22;20403;-77
2023/02/26 12:13:05;;;;;;;6.20;3.23;;;32.70;24.00;;;;;;6337892;22;20406;-79
2023/02/26 12:15:39;;;;;;;2.73;2.50;;;33.60;22.90;;;;;;6335791;22;20399;-78
2023/02/26 12:18:21;;;;;;;2.27;2.17;;;34.20;22.00;;;;;;6336717;22;20455;-77
2023/02/26 12:20:56;;;;;;;7.87;2.50;;;34.80;21.70;;;;;;6335896;22;20380;-77
2023/02/26 12:23:34;;;;;;;6.13;2.23;;;34.70;20.40;;;;;;6334890;22;20414;-77
2023/02/26 12:26:23;;;;;;;1.60;1.50;;;34.80;21.20;;;;;;6335241;22;20423;-78
2023/02/26 12:29:05;;;;;;;6.43;1.30;;;35.10;20.70;;;;;;6337565;22;20392;-79
2023/02/26 12:31:43;;;;;;;1.57;0.80;;;33.90;21.80;;;;;;6338479;22;20392;-79
2023/02/26 12:34:20;;;;;;;3.13;1.20;;;32.40;19.60;;;;;;6337944;22;20528;-78
2023/02/26 12:36:58;;;;;;;6.40;1.00;;;32.30;20.70;;;;;;6338800;22;20403;-78
2023/02/26 12:39:38;;;;;;;1.40;0.93;;;31.30;19.60;;;;;;6336565;22;20383;-78
2023/02/26 12:42:13;;;;;;;3.90;0.90;;;30.50;20.40;;;;;;6336849;22;20429;-78
2023/02/26 12:45:06;;;;;;;2.17;1.13;;;29.70;20.60;;;;;;6339066;22;20431;-80
2023/02/26 12:47:43;;;;;;;3.60;1.23;;;28.40;21.60;;;;;;6345643;22;20402;-82
2023/02/26 12:50:35;;;;;;;2.60;1.40;;;29.60;22.00;;;;;;6344135;22;20399;-83
2023/02/26 12:53:32;;;;;;;3.57;1.10;;;29.60;21.70;;;;;;6345411;22;20407;-81
2023/02/26 12:56:09;;;;;;;2.10;1.20;;;31.40;22.60;;;;;;6345859;22;20430;-81
2023/02/26 12:58:47;;;;;;;0.90;0.90;;;31.50;20.70;;;;;;6348642;22;20407;-84
2023/02/26 13:01:43;;;;;;;1.30;1.20;;;32.90;22.00;;;;;;6356340;22;20479;-83
2023/02/26 13:04:51;;;;;;;3.00;1.30;;;34.30;21.10;;;;;;6336214;22;20439;-84
2023/02/26 13:07:38;;;;;;;1.17;1.17;;;34.90;21.10;;;;;;6355525;22;20404;-82
2023/02/26 13:10:08;;;;;;;3.83;1.40;;;33.90;20.40;;;;;;6356892;22;20430;-82
2023/02/26 13:12:42;;;;;;;1.47;1.30;;;33.90;22.10;;;;;;6356492;22;20427;-84
2023/02/26 13:15:25;;;;;;;1.40;1.30;;;33.20;21.60;;;;;;6356327;22;20495;-83
2023/02/26 13:17:56;;;;;;;1.23;1.13;;;34.00;21.40;;;;;;6356032;22;20423;-82
2023/02/26 13:20:26;;;;;;;2.07;1.30;;;32.80;21.30;;;;;;6356366;22;20430;-81
2023/02/26 13:22:56;;;;;;;2.80;1.50;;;31.60;22.30;;;;;;6357371;22;20427;-80
2023/02/26 13:25:28;;;;;;;1.50;1.37;;;31.70;23.70;;;;;;6356263;22;20434;-84
2023/02/26 13:27:57;;;;;;;2.00;1.30;;;32.00;24.30;;;;;;6356580;22;20418;-83
2023/02/26 13:30:27;;;;;;;2.03;1.60;;;32.50;23.40;;;;;;6356970;22;20434;-82
2023/02/26 13:32:58;;;;;;;4.20;1.90;;;33.00;23.50;;;;;;6356234;22;20411;-81